sensor_id;sensor_type;location;lat;lon;timestamp;temperature;humidity
10530;DHT22;5313;48.834;9.228;2023-05-10T00:01:03;14.00;99.90
10530;DHT22;5313;48.834;9.228;2023-05-10T00:03:29;14.00;99.90
10530;DHT22;5313;48.834;9.228;2023-05-10T00:05:54;13.40;99.90
10530;DHT22;5313;48.834;9.228;2023-05-10T00:08:20;13.60;99.90
10530;DHT22;5313;48.834;9.228;2023-05-10T00:10:45;13.50;99.90
10530;DHT22;5313;48.834;9.228;2023-05-10T00:13:11;13.50;99.90
10530;DHT22;5313;48.834;9.228;2023-05-10T00:15:37;13.40;99.90
10530;DHT22;5313;48.834;9.228;2023-05-10T00:18:02;13.30;99.90
10530;DHT22;5313;48.834;9.228;2023-05-10T00:20:28;13.30;99.90
10530;DHT22;5313;48.834;9.228;2023-05-10T00:22:53;13.30;99.90
10530;DHT22;5313;48.834;9.228;2023-05-10T00:25:19;13.30;99.90
10530;DHT22;5313;48.834;9.228;2023-05-10T00:27:45;13.30;99.90
10530;DHT22;5313;48.834;9.228;2023-05-10T00:30:11;13.30;99.90
10530;DHT22;5313;48.834;9.228;2023-05-10T00:32:36;13.20;99.90
10530;DHT22;5313;48.834;9.228;2023-05-10T00:35:02;13.60;99.90
10530;DHT22;5313;48.834;9.228;2023-05-10T00:37:27;13.20;99.90
10530;DHT22;5313;48.834;9.228;2023-05-10T00:39:53;13.10;99.90
10530;DHT22;5313;48.834;9.228;2023-05-10T00:42:19;13.10;99.90
10530;DHT22;5313;48.834;9.228;2023-05-10T00:44:44;13.00;99.90
10530;DHT22;5313;48.834;9.228;2023-05-10T00:47:10;13.00;99.90
10530;DHT22;5313;48.834;9.228;2023-05-10T00:49:36;13.00;99.90
10530;DHT22;5313;48.834;9.228;2023-05-10T00:52:01;12.90;99.90
10530;DHT22;5313;48.834;9.228;2023-05-10T00:54:28;12.90;99.90
10530;DHT22;5313;48.834;9.228;2023-05-10T00:56:54;12.90;99.90
10530;DHT22;5313;48.834;9.228;2023-05-10T00:59:20;12.90;99.90
10530;DHT22;5313;48.834;9.228;2023-05-10T01:01:47;12.90;99.90
10530;DHT22;5313;48.834;9.228;2023-05-10T01:04:13;12.80;99.90
10530;DHT22;5313;48.834;9.228;2023-05-10T01:06:42;12.80;99.90
10530;DHT22;5313;48.834;9.228;2023-05-10T01:09:08;12.90;99.90
10530;DHT22;5313;48.834;9.228;2023-05-10T01:11:38;12.80;99.90
10530;DHT22;5313;48.834;9.228;2023-05-10T01:14:04;12.80;99.90
10530;DHT22;5313;48.834;9.228;2023-05-10T01:16:37;12.80;99.90
10530;DHT22;5313;48.834;9.228;2023-05-10T01:19:06;12.80;99.90
10530;DHT22;5313;48.834;9.228;2023-05-10T01:30:27;12.80;99.90
10530;DHT22;5313;48.834;9.228;2023-05-10T01:36:13;12.80;99.90
10530;DHT22;5313;48.834;9.228;2023-05-10T01:38:53;12.80;99.90
10530;DHT22;5313;48.834;9.228;2023-05-10T01:41:36;12.80;99.90
10530;DHT22;5313;48.834;9.228;2023-05-10T01:44:18;12.80;99.90
10530;DHT22;5313;48.834;9.228;2023-05-10T01:46:50;12.90;99.90
10530;DHT22;5313;48.834;9.228;2023-05-10T01:49:27;12.90;99.90
10530;DHT22;5313;48.834;9.228;2023-05-10T01:52:00;12.90;99.90
10530;DHT22;5313;48.834;9.228;2023-05-10T01:54:28;12.90;99.90
10530;DHT22;5313;48.834;9.228;2023-05-10T01:57:03;12.80;99.90
10530;DHT22;5313;48.834;9.228;2023-05-10T01:59:34;12.80;99.90
10530;DHT22;5313;48.834;9.228;2023-05-10T02:02:05;12.90;99.90
10530;DHT22;5313;48.834;9.228;2023-05-10T02:04:31;12.90;99.90
10530;DHT22;5313;48.834;9.228;2023-05-10T02:06:58;12.90;99.90
10530;DHT22;5313;48.834;9.228;2023-05-10T02:09:25;12.90;99.90
10530;DHT22;5313;48.834;9.228;2023-05-10T02:11:52;12.90;99.90
10530;DHT22;5313;48.834;9.228;2023-05-10T02:14:19;12.90;99.90
10530;DHT22;5313;48.834;9.228;2023-05-10T02:16:46;12.90;99.90
10530;DHT22;5313;48.834;9.228;2023-05-10T02:19:13;12.90;99.90
10530;DHT22;5313;48.834;9.228;2023-05-10T02:21:40;12.80;99.90
10530;DHT22;5313;48.834;9.228;2023-05-10T02:24:07;12.80;99.90
10530;DHT22;5313;48.834;9.228;2023-05-10T02:26:35;12.80;99.90
10530;DHT22;5313;48.834;9.228;2023-05-10T02:29:02;12.80;99.90
10530;DHT22;5313;48.834;9.228;2023-05-10T02:31:30;12.80;99.90
10530;DHT22;5313;48.834;9.228;2023-05-10T02:33:57;12.80;99.90
10530;DHT22;5313;48.834;9.228;2023-05-10T02:36:24;12.80;99.90
10530;DHT22;5313;48.834;9.228;2023-05-10T02:38:52;12.80;99.90
10530;DHT22;5313;48.834;9.228;2023-05-10T02:41:20;12.80;99.90
10530;DHT22;5313;48.834;9.228;2023-05-10T02:43:50;12.80;99.90
10530;DHT22;5313;48.834;9.228;2023-05-10T02:46:16;12.80;99.90
10530;DHT22;5313;48.834;9.228;2023-05-10T02:48:41;12.80;99.90
10530;DHT22;5313;48.834;9.228;2023-05-10T02:51:07;12.80;99.90
10530;DHT22;5313;48.834;9.228;2023-05-10T02:53:35;12.80;99.90
10530;DHT22;5313;48.834;9.228;2023-05-10T02:56:12;12.80;99.90
10530;DHT22;5313;48.834;9.228;2023-05-10T02:58:39;12.80;99.90
10530;DHT22;5313;48.834;9.228;2023-05-10T03:01:05;12.80;99.90
10530;DHT22;5313;48.834;9.228;2023-05-10T03:03:31;12.90;99.90
10530;DHT22;5313;48.834;9.228;2023-05-10T03:05:57;12.80;99.90
10530;DHT22;5313;48.834;9.228;2023-05-10T03:08:23;12.90;99.90
10530;DHT22;5313;48.834;9.228;2023-05-10T03:11:08;12.90;99.90
10530;DHT22;5313;48.834;9.228;2023-05-10T03:13:44;12.90;99.90
10530;DHT22;5313;48.834;9.228;2023-05-10T03:16:15;12.90;99.90
10530;DHT22;5313;48.834;9.228;2023-05-10T03:18:44;12.90;99.90
10530;DHT22;5313;48.834;9.228;2023-05-10T03:21:13;12.90;99.90
10530;DHT22;5313;48.834;9.228;2023-05-10T03:23:52;12.90;99.90
10530;DHT22;5313;48.834;9.228;2023-05-10T03:26:24;12.80;99.90
10530;DHT22;5313;48.834;9.228;2023-05-10T03:28:52;12.80;99.90
10530;DHT22;5313;48.834;9.228;2023-05-10T03:31:18;12.80;99.90
10530;DHT22;5313;48.834;9.228;2023-05-10T03:33:51;12.80;99.90
10530;DHT22;5313;48.834;9.228;2023-05-10T03:36:17;12.80;99.90
10530;DHT22;5313;48.834;9.228;2023-05-10T03:38:43;12.80;99.90
10530;DHT22;5313;48.834;9.228;2023-05-10T03:41:08;12.80;99.90
10530;DHT22;5313;48.834;9.228;2023-05-10T03:43:34;12.90;99.90
10530;DHT22;5313;48.834;9.228;2023-05-10T03:46:02;13.00;99.90
10530;DHT22;5313;48.834;9.228;2023-05-10T03:48:28;13.00;99.90
10530;DHT22;5313;48.834;9.228;2023-05-10T03:50:53;13.00;99.90
10530;DHT22;5313;48.834;9.228;2023-05-10T03:53:19;12.90;99.90
10530;DHT22;5313;48.834;9.228;2023-05-10T03:55:44;12.90;99.90
10530;DHT22;5313;48.834;9.228;2023-05-10T03:58:13;12.80;99.90
10530;DHT22;5313;48.834;9.228;2023-05-10T04:00:38;12.90;99.90
10530;DHT22;5313;48.834;9.228;2023-05-10T04:03:09;12.90;99.90
10530;DHT22;5313;48.834;9.228;2023-05-10T04:05:35;12.90;99.90
10530;DHT22;5313;48.834;9.228;2023-05-10T04:08:01;12.90;99.90
10530;DHT22;5313;48.834;9.228;2023-05-10T04:10:26;12.90;99.90
10530;DHT22;5313;48.834;9.228;2023-05-10T04:12:52;12.90;99.90
10530;DHT22;5313;48.834;9.228;2023-05-10T04:15:17;12.90;99.90
10530;DHT22;5313;48.834;9.228;2023-05-10T04:17:43;12.90;99.90
10530;DHT22;5313;48.834;9.228;2023-05-10T04:20:09;12.90;99.90
10530;DHT22;5313;48.834;9.228;2023-05-10T04:22:35;12.90;99.90
10530;DHT22;5313;48.834;9.228;2023-05-10T04:25:00;12.90;99.90
10530;DHT22;5313;48.834;9.228;2023-05-10T04:27:26;12.90;99.90
10530;DHT22;5313;48.834;9.228;2023-05-10T04:29:51;14.90;99.90
10530;DHT22;5313;48.834;9.228;2023-05-10T04:32:17;12.90;99.90
10530;DHT22;5313;48.834;9.228;2023-05-10T04:34:43;12.90;99.90
10530;DHT22;5313;48.834;9.228;2023-05-10T04:37:09;12.80;99.90
10530;DHT22;5313;48.834;9.228;2023-05-10T04:39:34;12.90;99.90
10530;DHT22;5313;48.834;9.228;2023-05-10T04:42:01;12.90;99.90
10530;DHT22;5313;48.834;9.228;2023-05-10T04:44:28;12.90;99.90
10530;DHT22;5313;48.834;9.228;2023-05-10T04:46:54;12.90;99.90
10530;DHT22;5313;48.834;9.228;2023-05-10T04:49:19;12.90;99.90
10530;DHT22;5313;48.834;9.228;2023-05-10T04:51:45;12.90;99.90
10530;DHT22;5313;48.834;9.228;2023-05-10T04:54:10;12.90;99.90
10530;DHT22;5313;48.834;9.228;2023-05-10T04:56:36;13.00;99.90
10530;DHT22;5313;48.834;9.228;2023-05-10T04:59:01;12.90;99.90
10530;DHT22;5313;48.834;9.228;2023-05-10T05:01:28;13.00;99.90
10530;DHT22;5313;48.834;9.228;2023-05-10T05:03:53;13.00;99.90
10530;DHT22;5313;48.834;9.228;2023-05-10T05:06:19;13.10;99.90
10530;DHT22;5313;48.834;9.228;2023-05-10T05:08:46;13.10;99.90
10530;DHT22;5313;48.834;9.228;2023-05-10T05:11:12;13.20;99.90
10530;DHT22;5313;48.834;9.228;2023-05-10T05:13:37;13.20;99.90
10530;DHT22;5313;48.834;9.228;2023-05-10T05:16:03;13.30;99.90
10530;DHT22;5313;48.834;9.228;2023-05-10T05:18:29;13.30;99.90
10530;DHT22;5313;48.834;9.228;2023-05-10T05:20:54;13.40;99.90
10530;DHT22;5313;48.834;9.228;2023-05-10T05:23:20;13.40;99.90
10530;DHT22;5313;48.834;9.228;2023-05-10T05:25:46;13.50;99.90
10530;DHT22;5313;48.834;9.228;2023-05-10T05:28:12;13.50;99.90
10530;DHT22;5313;48.834;9.228;2023-05-10T05:30:37;13.60;99.90
10530;DHT22;5313;48.834;9.228;2023-05-10T05:33:03;13.70;99.90
10530;DHT22;5313;48.834;9.228;2023-05-10T05:35:29;13.70;99.90
10530;DHT22;5313;48.834;9.228;2023-05-10T05:37:54;13.70;99.90
10530;DHT22;5313;48.834;9.228;2023-05-10T05:40:21;13.80;99.90
10530;DHT22;5313;48.834;9.228;2023-05-10T05:42:46;13.80;99.90
10530;DHT22;5313;48.834;9.228;2023-05-10T05:45:12;13.90;99.90
10530;DHT22;5313;48.834;9.228;2023-05-10T05:47:40;13.90;99.90
10530;DHT22;5313;48.834;9.228;2023-05-10T05:50:06;13.90;99.90
10530;DHT22;5313;48.834;9.228;2023-05-10T05:52:32;14.00;99.90
10530;DHT22;5313;48.834;9.228;2023-05-10T05:54:57;14.00;99.90
10530;DHT22;5313;48.834;9.228;2023-05-10T05:57:23;14.00;99.90
10530;DHT22;5313;48.834;9.228;2023-05-10T05:59:49;14.00;99.90
10530;DHT22;5313;48.834;9.228;2023-05-10T06:02:14;14.00;99.90
10530;DHT22;5313;48.834;9.228;2023-05-10T06:04:40;13.90;99.90
10530;DHT22;5313;48.834;9.228;2023-05-10T06:07:05;14.00;99.90
10530;DHT22;5313;48.834;9.228;2023-05-10T06:09:31;14.10;99.90
10530;DHT22;5313;48.834;9.228;2023-05-10T06:11:56;14.00;99.90
10530;DHT22;5313;48.834;9.228;2023-05-10T06:14:22;14.00;99.90
10530;DHT22;5313;48.834;9.228;2023-05-10T06:16:48;14.10;99.90
10530;DHT22;5313;48.834;9.228;2023-05-10T06:19:13;14.20;99.90
10530;DHT22;5313;48.834;9.228;2023-05-10T06:21:39;14.20;99.90
10530;DHT22;5313;48.834;9.228;2023-05-10T06:24:05;14.20;99.90
10530;DHT22;5313;48.834;9.228;2023-05-10T06:26:32;14.30;99.90
10530;DHT22;5313;48.834;9.228;2023-05-10T06:28:57;14.30;99.90
10530;DHT22;5313;48.834;9.228;2023-05-10T06:31:23;14.30;99.90
10530;DHT22;5313;48.834;9.228;2023-05-10T06:33:48;14.30;99.90
10530;DHT22;5313;48.834;9.228;2023-05-10T06:36:14;14.30;99.90
10530;DHT22;5313;48.834;9.228;2023-05-10T06:38:39;14.30;99.90
10530;DHT22;5313;48.834;9.228;2023-05-10T06:41:05;14.30;99.90
10530;DHT22;5313;48.834;9.228;2023-05-10T06:43:31;14.30;99.90
10530;DHT22;5313;48.834;9.228;2023-05-10T06:45:57;14.30;99.90
10530;DHT22;5313;48.834;9.228;2023-05-10T06:48:22;14.30;99.90
10530;DHT22;5313;48.834;9.228;2023-05-10T06:50:48;14.30;99.90
10530;DHT22;5313;48.834;9.228;2023-05-10T06:53:13;14.40;99.90
10530;DHT22;5313;48.834;9.228;2023-05-10T06:55:39;14.50;99.90
10530;DHT22;5313;48.834;9.228;2023-05-10T06:58:05;14.50;99.90
10530;DHT22;5313;48.834;9.228;2023-05-10T07:00:31;14.60;99.90
10530;DHT22;5313;48.834;9.228;2023-05-10T07:02:56;14.60;99.90
10530;DHT22;5313;48.834;9.228;2023-05-10T07:05:22;14.50;99.90
10530;DHT22;5313;48.834;9.228;2023-05-10T07:07:48;14.50;99.90
10530;DHT22;5313;48.834;9.228;2023-05-10T07:10:13;14.50;99.90
10530;DHT22;5313;48.834;9.228;2023-05-10T07:12:39;14.40;99.90
10530;DHT22;5313;48.834;9.228;2023-05-10T07:15:05;14.50;99.90
10530;DHT22;5313;48.834;9.228;2023-05-10T07:17:31;14.60;99.90
10530;DHT22;5313;48.834;9.228;2023-05-10T07:19:58;14.80;99.90
10530;DHT22;5313;48.834;9.228;2023-05-10T07:22:24;14.80;99.90
10530;DHT22;5313;48.834;9.228;2023-05-10T07:24:50;15.00;99.90
10530;DHT22;5313;48.834;9.228;2023-05-10T07:27:15;15.10;99.90
10530;DHT22;5313;48.834;9.228;2023-05-10T07:29:41;15.00;99.90
10530;DHT22;5313;48.834;9.228;2023-05-10T07:32:06;15.10;99.90
10530;DHT22;5313;48.834;9.228;2023-05-10T07:34:32;15.10;99.90
10530;DHT22;5313;48.834;9.228;2023-05-10T07:37:00;15.20;99.90
10530;DHT22;5313;48.834;9.228;2023-05-10T07:39:27;15.30;99.90
10530;DHT22;5313;48.834;9.228;2023-05-10T07:41:52;15.20;99.90
10530;DHT22;5313;48.834;9.228;2023-05-10T07:44:18;15.20;99.90
10530;DHT22;5313;48.834;9.228;2023-05-10T07:46:45;15.40;99.90
10530;DHT22;5313;48.834;9.228;2023-05-10T07:49:11;15.50;99.90
10530;DHT22;5313;48.834;9.228;2023-05-10T07:51:36;15.50;99.90
10530;DHT22;5313;48.834;9.228;2023-05-10T07:54:02;15.50;99.90
10530;DHT22;5313;48.834;9.228;2023-05-10T07:56:31;15.60;99.90
10530;DHT22;5313;48.834;9.228;2023-05-10T07:58:58;15.70;99.90
10530;DHT22;5313;48.834;9.228;2023-05-10T08:01:25;15.70;99.90
10530;DHT22;5313;48.834;9.228;2023-05-10T08:03:52;15.70;99.90
10530;DHT22;5313;48.834;9.228;2023-05-10T08:06:19;15.80;99.90
10530;DHT22;5313;48.834;9.228;2023-05-10T08:08:46;15.70;99.90
10530;DHT22;5313;48.834;9.228;2023-05-10T08:11:17;15.50;99.90
10530;DHT22;5313;48.834;9.228;2023-05-10T08:13:47;15.60;99.90
10530;DHT22;5313;48.834;9.228;2023-05-10T08:16:13;15.60;99.90
10530;DHT22;5313;48.834;9.228;2023-05-10T08:18:39;15.50;99.90
10530;DHT22;5313;48.834;9.228;2023-05-10T08:21:05;15.50;99.90
10530;DHT22;5313;48.834;9.228;2023-05-10T08:23:31;15.50;99.90
10530;DHT22;5313;48.834;9.228;2023-05-10T08:25:57;15.40;99.90
10530;DHT22;5313;48.834;9.228;2023-05-10T08:28:22;15.50;99.90
10530;DHT22;5313;48.834;9.228;2023-05-10T08:30:49;15.40;99.90
10530;DHT22;5313;48.834;9.228;2023-05-10T08:33:15;15.50;99.90
10530;DHT22;5313;48.834;9.228;2023-05-10T08:35:41;15.60;99.90
10530;DHT22;5313;48.834;9.228;2023-05-10T08:38:07;15.70;99.90
10530;DHT22;5313;48.834;9.228;2023-05-10T08:40:33;15.90;99.90
10530;DHT22;5313;48.834;9.228;2023-05-10T08:43:11;15.80;99.90
10530;DHT22;5313;48.834;9.228;2023-05-10T08:45:39;15.80;99.90
10530;DHT22;5313;48.834;9.228;2023-05-10T08:48:05;15.70;99.90
10530;DHT22;5313;48.834;9.228;2023-05-10T08:50:32;15.70;99.90
10530;DHT22;5313;48.834;9.228;2023-05-10T08:53:00;15.70;99.90
10530;DHT22;5313;48.834;9.228;2023-05-10T08:55:27;15.70;99.90
10530;DHT22;5313;48.834;9.228;2023-05-10T08:57:53;15.80;99.90
10530;DHT22;5313;48.834;9.228;2023-05-10T09:00:19;15.90;99.90
10530;DHT22;5313;48.834;9.228;2023-05-10T09:02:45;16.10;99.90
10530;DHT22;5313;48.834;9.228;2023-05-10T09:05:14;16.20;99.90
10530;DHT22;5313;48.834;9.228;2023-05-10T09:07:41;16.40;99.90
10530;DHT22;5313;48.834;9.228;2023-05-10T09:10:07;16.30;99.90
10530;DHT22;5313;48.834;9.228;2023-05-10T09:12:34;16.30;99.90
10530;DHT22;5313;48.834;9.228;2023-05-10T09:15:00;16.40;99.90
10530;DHT22;5313;48.834;9.228;2023-05-10T09:17:27;16.50;99.90
10530;DHT22;5313;48.834;9.228;2023-05-10T09:20:01;16.60;99.90
10530;DHT22;5313;48.834;9.228;2023-05-10T09:22:28;16.70;99.90
10530;DHT22;5313;48.834;9.228;2023-05-10T09:25:23;16.70;99.90
10530;DHT22;5313;48.834;9.228;2023-05-10T09:27:49;16.60;99.90
10530;DHT22;5313;48.834;9.228;2023-05-10T09:30:17;16.60;99.90
10530;DHT22;5313;48.834;9.228;2023-05-10T09:32:45;16.60;99.90
10530;DHT22;5313;48.834;9.228;2023-05-10T09:35:15;16.50;99.90
10530;DHT22;5313;48.834;9.228;2023-05-10T09:37:42;16.60;99.90
10530;DHT22;5313;48.834;9.228;2023-05-10T09:40:13;16.60;99.90
10530;DHT22;5313;48.834;9.228;2023-05-10T09:42:51;16.60;99.90
10530;DHT22;5313;48.834;9.228;2023-05-10T09:45:16;16.70;99.90
10530;DHT22;5313;48.834;9.228;2023-05-10T09:47:42;17.00;99.90
10530;DHT22;5313;48.834;9.228;2023-05-10T09:50:09;17.10;99.90
10530;DHT22;5313;48.834;9.228;2023-05-10T09:52:50;17.20;99.90
10530;DHT22;5313;48.834;9.228;2023-05-10T09:55:18;16.90;99.90
10530;DHT22;5313;48.834;9.228;2023-05-10T09:57:44;16.90;99.90
10530;DHT22;5313;48.834;9.228;2023-05-10T10:00:09;16.80;99.90
10530;DHT22;5313;48.834;9.228;2023-05-10T10:02:35;16.70;99.90
10530;DHT22;5313;48.834;9.228;2023-05-10T10:05:02;16.70;99.90
10530;DHT22;5313;48.834;9.228;2023-05-10T10:07:28;16.60;99.90
10530;DHT22;5313;48.834;9.228;2023-05-10T10:09:55;16.50;99.90
10530;DHT22;5313;48.834;9.228;2023-05-10T10:12:20;16.40;99.90
10530;DHT22;5313;48.834;9.228;2023-05-10T10:14:46;16.50;99.90
10530;DHT22;5313;48.834;9.228;2023-05-10T10:17:13;16.50;99.90
10530;DHT22;5313;48.834;9.228;2023-05-10T10:19:40;16.70;99.90
10530;DHT22;5313;48.834;9.228;2023-05-10T10:22:06;16.60;99.90
10530;DHT22;5313;48.834;9.228;2023-05-10T10:24:32;16.70;99.90
10530;DHT22;5313;48.834;9.228;2023-05-10T10:27:07;16.80;99.90
10530;DHT22;5313;48.834;9.228;2023-05-10T10:29:56;16.60;99.90
10530;DHT22;5313;48.834;9.228;2023-05-10T10:32:54;16.40;99.90
10530;DHT22;5313;48.834;9.228;2023-05-10T10:35:24;16.10;99.90
10530;DHT22;5313;48.834;9.228;2023-05-10T10:37:51;16.20;99.90
10530;DHT22;5313;48.834;9.228;2023-05-10T10:40:27;16.40;99.90
10530;DHT22;5313;48.834;9.228;2023-05-10T10:42:54;16.60;99.90
10530;DHT22;5313;48.834;9.228;2023-05-10T10:45:20;16.50;99.90
10530;DHT22;5313;48.834;9.228;2023-05-10T10:47:46;16.40;99.90
10530;DHT22;5313;48.834;9.228;2023-05-10T10:50:12;16.60;99.90
10530;DHT22;5313;48.834;9.228;2023-05-10T10:55:12;17.00;99.90
10530;DHT22;5313;48.834;9.228;2023-05-10T11:00:19;17.20;99.90
10530;DHT22;5313;48.834;9.228;2023-05-10T11:11:07;17.20;99.90
10530;DHT22;5313;48.834;9.228;2023-05-10T11:13:40;17.10;99.90
10530;DHT22;5313;48.834;9.228;2023-05-10T11:16:22;16.70;99.90
10530;DHT22;5313;48.834;9.228;2023-05-10T11:19:01;16.80;99.90
10530;DHT22;5313;48.834;9.228;2023-05-10T11:21:28;16.80;99.90
10530;DHT22;5313;48.834;9.228;2023-05-10T11:23:55;16.90;99.90
10530;DHT22;5313;48.834;9.228;2023-05-10T11:26:25;16.80;99.90
10530;DHT22;5313;48.834;9.228;2023-05-10T11:28:53;17.00;99.90
10530;DHT22;5313;48.834;9.228;2023-05-10T11:31:23;17.10;99.90
10530;DHT22;5313;48.834;9.228;2023-05-10T11:33:54;17.10;99.90
10530;DHT22;5313;48.834;9.228;2023-05-10T11:36:20;17.10;99.90
10530;DHT22;5313;48.834;9.228;2023-05-10T11:38:47;17.00;99.90
10530;DHT22;5313;48.834;9.228;2023-05-10T11:41:13;16.80;99.90
10530;DHT22;5313;48.834;9.228;2023-05-10T11:43:39;16.90;99.90
10530;DHT22;5313;48.834;9.228;2023-05-10T11:46:10;16.80;99.90
10530;DHT22;5313;48.834;9.228;2023-05-10T11:48:37;16.80;99.90
10530;DHT22;5313;48.834;9.228;2023-05-10T11:51:03;16.70;99.90
10530;DHT22;5313;48.834;9.228;2023-05-10T11:53:30;16.70;99.90
10530;DHT22;5313;48.834;9.228;2023-05-10T11:56:03;16.90;99.90
10530;DHT22;5313;48.834;9.228;2023-05-10T11:58:30;17.00;99.90
10530;DHT22;5313;48.834;9.228;2023-05-10T12:00:56;16.90;99.90
10530;DHT22;5313;48.834;9.228;2023-05-10T12:03:22;16.90;99.90
10530;DHT22;5313;48.834;9.228;2023-05-10T12:05:47;16.80;99.90
10530;DHT22;5313;48.834;9.228;2023-05-10T12:08:21;16.60;99.90
10530;DHT22;5313;48.834;9.228;2023-05-10T12:10:47;16.50;99.90
10530;DHT22;5313;48.834;9.228;2023-05-10T12:13:16;16.40;99.90
10530;DHT22;5313;48.834;9.228;2023-05-10T12:15:42;16.40;99.90
10530;DHT22;5313;48.834;9.228;2023-05-10T12:18:09;16.50;99.90
10530;DHT22;5313;48.834;9.228;2023-05-10T12:20:36;16.50;99.90
10530;DHT22;5313;48.834;9.228;2023-05-10T12:23:02;16.30;99.90
10530;DHT22;5313;48.834;9.228;2023-05-10T12:25:33;16.20;99.90
10530;DHT22;5313;48.834;9.228;2023-05-10T12:27:59;16.20;99.90
10530;DHT22;5313;48.834;9.228;2023-05-10T12:30:31;16.10;99.90
10530;DHT22;5313;48.834;9.228;2023-05-10T12:33:02;16.20;99.90
10530;DHT22;5313;48.834;9.228;2023-05-10T12:35:31;16.20;99.90
10530;DHT22;5313;48.834;9.228;2023-05-10T12:37:57;16.40;99.90
10530;DHT22;5313;48.834;9.228;2023-05-10T12:40:23;16.50;99.90
10530;DHT22;5313;48.834;9.228;2023-05-10T12:42:48;16.80;99.90
10530;DHT22;5313;48.834;9.228;2023-05-10T12:45:14;16.90;99.90
10530;DHT22;5313;48.834;9.228;2023-05-10T12:47:40;16.90;99.90
10530;DHT22;5313;48.834;9.228;2023-05-10T12:50:06;17.00;99.90
10530;DHT22;5313;48.834;9.228;2023-05-10T12:52:31;16.90;99.90
10530;DHT22;5313;48.834;9.228;2023-05-10T12:54:58;16.90;99.90
10530;DHT22;5313;48.834;9.228;2023-05-10T12:57:24;16.90;99.90
10530;DHT22;5313;48.834;9.228;2023-05-10T12:59:50;17.00;99.90
10530;DHT22;5313;48.834;9.228;2023-05-10T13:02:16;17.10;99.90
10530;DHT22;5313;48.834;9.228;2023-05-10T13:04:46;16.90;99.90
10530;DHT22;5313;48.834;9.228;2023-05-10T13:07:12;16.90;99.90
10530;DHT22;5313;48.834;9.228;2023-05-10T13:09:37;16.70;99.90
10530;DHT22;5313;48.834;9.228;2023-05-10T13:12:03;16.80;99.90
10530;DHT22;5313;48.834;9.228;2023-05-10T13:14:29;16.90;99.90
10530;DHT22;5313;48.834;9.228;2023-05-10T13:16:55;16.90;99.90
10530;DHT22;5313;48.834;9.228;2023-05-10T13:19:21;17.00;99.90
10530;DHT22;5313;48.834;9.228;2023-05-10T13:21:46;17.10;99.90
10530;DHT22;5313;48.834;9.228;2023-05-10T13:24:12;17.10;99.90
10530;DHT22;5313;48.834;9.228;2023-05-10T13:26:41;17.00;99.90
10530;DHT22;5313;48.834;9.228;2023-05-10T13:29:06;16.90;99.90
10530;DHT22;5313;48.834;9.228;2023-05-10T13:31:34;16.80;99.90
10530;DHT22;5313;48.834;9.228;2023-05-10T13:33:59;16.70;99.90
10530;DHT22;5313;48.834;9.228;2023-05-10T13:36:25;16.80;99.90
10530;DHT22;5313;48.834;9.228;2023-05-10T13:38:51;16.90;99.90
10530;DHT22;5313;48.834;9.228;2023-05-10T13:41:16;16.80;99.90
10530;DHT22;5313;48.834;9.228;2023-05-10T13:43:42;16.70;99.90
10530;DHT22;5313;48.834;9.228;2023-05-10T13:46:07;16.70;99.90
10530;DHT22;5313;48.834;9.228;2023-05-10T13:48:33;16.90;99.90
10530;DHT22;5313;48.834;9.228;2023-05-10T13:50:58;17.00;99.90
10530;DHT22;5313;48.834;9.228;2023-05-10T13:53:24;17.20;99.90
10530;DHT22;5313;48.834;9.228;2023-05-10T13:55:49;17.10;99.90
10530;DHT22;5313;48.834;9.228;2023-05-10T13:58:15;17.10;99.90
10530;DHT22;5313;48.834;9.228;2023-05-10T14:00:41;17.10;99.90
10530;DHT22;5313;48.834;9.228;2023-05-10T14:03:06;17.10;99.90
10530;DHT22;5313;48.834;9.228;2023-05-10T14:05:34;17.10;99.90
10530;DHT22;5313;48.834;9.228;2023-05-10T14:07:59;17.00;99.90
10530;DHT22;5313;48.834;9.228;2023-05-10T14:10:25;17.20;99.90
10530;DHT22;5313;48.834;9.228;2023-05-10T14:12:50;17.10;99.90
10530;DHT22;5313;48.834;9.228;2023-05-10T14:15:16;17.10;99.90
10530;DHT22;5313;48.834;9.228;2023-05-10T14:17:42;16.90;99.90
10530;DHT22;5313;48.834;9.228;2023-05-10T14:20:08;16.80;99.90
10530;DHT22;5313;48.834;9.228;2023-05-10T14:22:34;16.80;99.90
10530;DHT22;5313;48.834;9.228;2023-05-10T14:25:00;17.00;99.90
10530;DHT22;5313;48.834;9.228;2023-05-10T14:27:25;17.10;99.90
10530;DHT22;5313;48.834;9.228;2023-05-10T14:29:51;17.30;99.90
10530;DHT22;5313;48.834;9.228;2023-05-10T14:32:17;17.40;99.90
10530;DHT22;5313;48.834;9.228;2023-05-10T14:34:42;17.50;99.90
10530;DHT22;5313;48.834;9.228;2023-05-10T14:37:10;17.70;99.90
10530;DHT22;5313;48.834;9.228;2023-05-10T14:39:36;17.60;99.90
10530;DHT22;5313;48.834;9.228;2023-05-10T14:42:01;17.60;99.90
10530;DHT22;5313;48.834;9.228;2023-05-10T14:44:27;17.50;99.90
10530;DHT22;5313;48.834;9.228;2023-05-10T14:46:53;17.50;99.90
10530;DHT22;5313;48.834;9.228;2023-05-10T14:49:19;17.50;99.90
10530;DHT22;5313;48.834;9.228;2023-05-10T14:51:44;17.50;99.90
10530;DHT22;5313;48.834;9.228;2023-05-10T14:54:10;17.60;99.90
10530;DHT22;5313;48.834;9.228;2023-05-10T14:56:36;17.60;99.90
10530;DHT22;5313;48.834;9.228;2023-05-10T14:59:02;17.60;99.90
10530;DHT22;5313;48.834;9.228;2023-05-10T15:01:29;17.70;99.90
10530;DHT22;5313;48.834;9.228;2023-05-10T15:03:54;17.80;99.90
10530;DHT22;5313;48.834;9.228;2023-05-10T15:06:23;17.80;99.90
10530;DHT22;5313;48.834;9.228;2023-05-10T15:08:50;17.70;99.90
10530;DHT22;5313;48.834;9.228;2023-05-10T15:11:16;17.50;99.90
10530;DHT22;5313;48.834;9.228;2023-05-10T15:13:42;17.60;99.90
10530;DHT22;5313;48.834;9.228;2023-05-10T15:16:08;17.50;99.90
10530;DHT22;5313;48.834;9.228;2023-05-10T15:18:33;17.30;99.90
10530;DHT22;5313;48.834;9.228;2023-05-10T15:20:59;17.50;99.90
10530;DHT22;5313;48.834;9.228;2023-05-10T15:23:24;17.50;99.90
10530;DHT22;5313;48.834;9.228;2023-05-10T15:25:50;17.50;99.90
10530;DHT22;5313;48.834;9.228;2023-05-10T15:28:17;17.10;99.90
10530;DHT22;5313;48.834;9.228;2023-05-10T15:30:43;17.30;99.90
10530;DHT22;5313;48.834;9.228;2023-05-10T15:33:08;17.10;99.90
10530;DHT22;5313;48.834;9.228;2023-05-10T15:35:34;17.20;99.90
10530;DHT22;5313;48.834;9.228;2023-05-10T15:38:01;17.30;99.90
10530;DHT22;5313;48.834;9.228;2023-05-10T15:40:26;17.30;99.90
10530;DHT22;5313;48.834;9.228;2023-05-10T15:42:52;17.40;99.90
10530;DHT22;5313;48.834;9.228;2023-05-10T15:45:17;17.30;99.90
10530;DHT22;5313;48.834;9.228;2023-05-10T15:47:43;17.30;99.90
10530;DHT22;5313;48.834;9.228;2023-05-10T15:50:10;17.30;99.90
10530;DHT22;5313;48.834;9.228;2023-05-10T15:52:35;17.20;99.90
10530;DHT22;5313;48.834;9.228;2023-05-10T15:55:01;17.30;99.90
10530;DHT22;5313;48.834;9.228;2023-05-10T15:57:27;17.40;99.90
10530;DHT22;5313;48.834;9.228;2023-05-10T15:59:52;17.50;99.90
10530;DHT22;5313;48.834;9.228;2023-05-10T16:02:18;17.60;99.90
10530;DHT22;5313;48.834;9.228;2023-05-10T16:04:43;17.60;99.90
10530;DHT22;5313;48.834;9.228;2023-05-10T16:07:09;17.30;99.90
10530;DHT22;5313;48.834;9.228;2023-05-10T16:09:34;17.20;99.90